Time;durP1;ratioP1;P1;durP2;ratioP2;P2;SDS_P1;SDS_P2;PMS_P1;PMS_P2;Temp;Humidity;BMP_temperature;BMP_pressure;BME280_temperature;BME280_humidity;BME280_pressure;Samples;Min_cycle;Max_cycle;Signal;HPM_P1;HPM_P2
2023/10/31 00:01:44;;;;;;;8.80;5.10;;;;;;;11.17;95.41;99739.38;79494;1301;3012947;-75
2023/10/31 00:04:11;;;;;;;6.80;4.60;;;;;;;10.99;96.92;99741.63;79520;1301;3011778;-67
2023/10/31 00:06:39;;;;;;;6.90;4.30;;;;;;;11.40;95.97;99740.45;78190;1301;3053186;-69
2023/10/31 00:09:05;;;;;;;7.30;4.20;;;;;;;11.62;93.79;99737.59;79327;1302;3013800;-64
2023/10/31 00:11:32;;;;;;;10.80;4.90;;;;;;;11.79;92.76;99736.53;79381;1303;3011842;-65
2023/10/31 00:13:59;;;;;;;9.30;4.90;;;;;;;11.58;92.91;99735.73;78034;1305;3025190;-67
2023/10/31 00:16:26;;;;;;;7.70;5.00;;;;;;;11.44;93.86;99733.42;79269;1301;3011896;-66
2023/10/31 00:18:52;;;;;;;6.90;3.90;;;;;;;11.22;95.54;99733.09;79326;1301;3011787;-67
2023/10/31 00:21:20;;;;;;;10.80;4.20;;;;;;;11.51;94.51;99726.29;78129;1304;3028211;-68
2023/10/31 00:23:47;;;;;;;8.50;4.30;;;;;;;11.85;92.33;99723.72;79454;1301;3018366;-65
2023/10/31 00:26:14;;;;;;;12.60;4.30;;;;;;;11.74;92.02;99725.27;79294;1301;3011898;-65
2023/10/31 00:28:43;;;;;;;6.10;4.30;;;;;;;11.61;93.05;99726.23;78161;1298;3048646;-66
2023/10/31 00:31:11;;;;;;;9.40;5.00;;;;;;;11.42;94.02;99726.81;79416;1301;3013088;-65
2023/10/31 00:33:37;;;;;;;7.90;3.70;;;;;;;11.26;95.38;99728.31;79378;1301;3011873;-70
2023/10/31 00:36:06;;;;;;;7.90;4.30;;;;;;;11.66;94.40;99730.84;78282;1302;3051315;-67
2023/10/31 00:38:32;;;;;;;5.10;3.50;;;;;;;12.11;91.47;99731.09;79361;1300;3018913;-67
2023/10/31 00:40:58;;;;;;;8.50;4.10;;;;;;;11.91;90.92;99735.98;79557;1295;3011593;-67
2023/10/31 00:43:26;;;;;;;7.20;4.30;;;;;;;11.77;91.60;99730.00;78185;1302;3028292;-66
2023/10/31 00:45:53;;;;;;;8.00;4.20;;;;;;;11.60;92.55;99731.54;79618;1302;3013620;-66
2023/10/31 00:48:20;;;;;;;6.10;3.70;;;;;;;11.48;93.02;99729.97;79276;1296;3011593;-67
2023/10/31 00:50:48;;;;;;;6.80;4.10;;;;;;;11.80;91.99;99728.41;78367;1301;3053391;-67
2023/10/31 00:53:16;;;;;;;8.40;4.40;;;;;;;12.06;90.43;99728.09;79605;1300;3013213;-68
2023/10/31 00:55:44;;;;;;;7.20;4.20;;;;;;;11.98;90.06;99723.32;79400;1295;3012866;-68
2023/10/31 00:58:11;;;;;;;6.90;4.40;;;;;;;11.80;90.31;99714.55;78236;1301;3049850;-65
2023/10/31 01:00:38;;;;;;;8.90;4.30;;;;;;;11.47;91.42;99708.79;79526;1299;3020765;-73
2023/10/31 01:03:04;;;;;;;6.30;4.40;;;;;;;11.23;93.07;99706.57;79322;1301;3011873;-67
2023/10/31 01:05:32;;;;;;;5.00;3.20;;;;;;;11.06;94.36;99710.21;78336;1302;3026528;-65
2023/10/31 01:07:59;;;;;;;6.20;4.00;;;;;;;11.27;93.87;99706.89;79455;1300;3018271;-67
2023/10/31 01:10:25;;;;;;;6.00;3.70;;;;;;;11.56;91.53;99704.26;79403;1311;3011555;-66
2023/10/31 01:12:53;;;;;;;6.60;3.70;;;;;;;11.37;91.80;99705.95;78287;1302;3025063;-67
2023/10/31 01:15:20;;;;;;;9.50;4.20;;;;;;;11.05;93.13;99706.41;79571;1301;3013283;-69
2023/10/31 01:17:46;;;;;;;6.30;4.40;;;;;;;10.77;94.71;99703.29;79435;1309;3011452;-70
2023/10/31 01:20:14;;;;;;;11.20;4.40;;;;;;;10.73;95.51;99698.95;78037;1309;3026942;-69
2023/10/31 01:22:41;;;;;;;6.90;3.80;;;;;;;11.14;94.13;99695.88;79531;1296;3019168;-67
2023/10/31 01:25:08;;;;;;;5.80;4.00;;;;;;;11.39;91.64;99697.74;79508;1301;3011628;-70
2023/10/31 01:27:36;;;;;;;8.60;4.00;;;;;;;11.26;91.58;99697.98;78253;1301;3027533;-64
2023/10/31 01:30:03;;;;;;;5.80;4.30;;;;;;;10.99;92.39;99696.20;79506;1295;3019011;-64
2023/10/31 01:32:30;;;;;;;7.60;4.90;;;;;;;10.76;93.96;99693.58;79524;1304;3013457;-67
2023/10/31 01:34:57;;;;;;;6.60;4.10;;;;;;;10.54;94.81;99700.58;78150;1301;3051872;-67
2023/10/31 01:37:25;;;;;;;5.50;3.70;;;;;;;10.66;94.91;99703.56;79478;1298;3013339;-68
2023/10/31 01:39:51;;;;;;;7.40;4.10;;;;;;;10.98;93.29;99703.00;79503;1295;3013087;-64
2023/10/31 01:42:19;;;;;;;9.90;4.10;;;;;;;10.93;92.76;99702.00;78107;1301;3048212;-69
2023/10/31 01:44:46;;;;;;;6.30;4.50;;;;;;;10.71;93.45;99706.42;79618;1301;3013519;-66
2023/10/31 01:47:12;;;;;;;7.50;4.80;;;;;;;10.55;94.52;99709.10;79344;1301;3011613;-66
2023/10/31 01:49:40;;;;;;;8.00;4.20;;;;;;;10.41;95.21;99703.20;78184;1301;3028346;-69
2023/10/31 01:52:07;;;;;;;7.00;3.90;;;;;;;10.68;94.68;99704.35;79566;1301;3012921;-66
2023/10/31 01:54:33;;;;;;;6.70;4.00;;;;;;;10.99;92.51;99702.53;79445;1300;3012001;-70
2023/10/31 01:57:02;;;;;;;6.30;4.10;;;;;;;10.94;91.80;99705.13;78594;1296;3027998;-66
2023/10/31 01:59:29;;;;;;;5.80;4.40;;;;;;;10.74;92.69;99703.10;79314;1301;3013143;-68
2023/10/31 02:01:57;;;;;;;6.10;4.40;;;;;;;10.49;93.54;99695.59;79475;1301;3011640;-66
2023/10/31 02:04:25;;;;;;;4.90;3.10;;;;;;;10.09;96.19;99696.54;78178;1298;3052606;-71
2023/10/31 02:06:51;;;;;;;6.00;3.90;;;;;;;10.58;95.58;99697.05;79338;1295;3013553;-66
2023/10/31 02:09:23;;;;;;;5.70;3.70;;;;;;;10.81;93.58;99701.33;79356;1295;3011485;-68
2023/10/31 02:11:51;;;;;;;5.10;3.90;;;;;;;10.59;94.08;99703.95;78237;1301;3049667;-65
2023/10/31 02:14:18;;;;;;;8.10;4.30;;;;;;;10.31;95.48;99699.20;79466;1302;3018451;-69
2023/10/31 02:16:45;;;;;;;6.50;4.80;;;;;;;10.25;96.18;99699.17;79323;1300;3011715;-66
2023/10/31 02:19:13;;;;;;;6.50;3.30;;;;;;;10.02;97.51;99694.31;78178;1301;3026197;-69
2023/10/31 02:21:39;;;;;;;6.20;3.90;;;;;;;10.41;96.98;99697.96;79408;1301;3013606;-65
2023/10/31 02:24:07;;;;;;;5.60;4.40;;;;;;;10.66;94.52;99690.09;79322;1296;3014042;-67
2023/10/31 02:26:35;;;;;;;5.60;4.30;;;;;;;10.51;94.84;99687.63;78102;1301;3025031;-67
2023/10/31 02:29:01;;;;;;;7.50;4.80;;;;;;;10.25;96.01;99686.55;79346;1311;3012958;-66
2023/10/31 02:31:28;;;;;;;7.40;5.10;;;;;;;10.02;97.34;99688.70;79461;1301;3011618;-66
2023/10/31 02:33:56;;;;;;;6.80;3.70;;;;;;;9.77;99.06;99687.39;78202;1301;3028424;-67
2023/10/31 02:36:23;;;;;;;5.70;3.60;;;;;;;9.98;99.19;99683.48;79405;1301;3013091;-65
2023/10/31 02:38:49;;;;;;;4.90;4.00;;;;;;;10.29;97.36;99685.85;79435;1300;3012987;-69
2023/10/31 02:41:17;;;;;;;4.50;4.00;;;;;;;10.21;97.41;99690.48;78167;1301;3027676;-67
2023/10/31 02:43:44;;;;;;;5.60;4.60;;;;;;;10.06;98.29;99685.36;79278;1298;3013240;-65
2023/10/31 02:46:14;;;;;;;6.90;4.40;;;;;;;9.84;99.80;99679.17;79246;1301;3011733;-66
2023/10/31 02:48:42;;;;;;;4.80;3.30;;;;;;;9.78;100.00;99679.66;78026;1302;3053411;-69
2023/10/31 02:51:09;;;;;;;5.10;3.70;;;;;;;10.09;99.90;99678.01;79606;1301;3013154;-64
2023/10/31 02:53:36;;;;;;;5.90;4.10;;;;;;;10.42;98.36;99674.45;79310;1301;3011690;-64
2023/10/31 02:56:04;;;;;;;6.70;4.00;;;;;;;10.31;98.07;99676.41;78122;1301;3049758;-64
2023/10/31 02:58:32;;;;;;;5.40;4.60;;;;;;;10.19;98.79;99673.09;79325;1295;3013469;-68
2023/10/31 03:00:58;;;;;;;5.10;4.40;;;;;;;9.95;99.92;99670.55;79525;1295;3011720;-70
2023/10/31 03:03:26;;;;;;;4.70;3.60;;;;;;;9.82;100.00;99669.65;78337;1301;3052926;-69
2023/10/31 03:05:53;;;;;;;4.80;3.60;;;;;;;10.00;100.00;99665.00;79605;1295;3013643;-66
2023/10/31 03:08:20;;;;;;;5.00;3.90;;;;;;;10.31;99.56;99662.93;79565;1300;3012621;-66
2023/10/31 03:10:52;;;;;;;8.40;4.50;;;;;;;10.32;99.00;99661.17;78119;1301;3050433;-68
2023/10/31 03:13:19;;;;;;;5.40;4.40;;;;;;;10.26;99.79;99661.48;79381;1295;3013553;-70
2023/10/31 03:15:47;;;;;;;7.20;4.50;;;;;;;10.02;100.00;99666.15;78086;1295;3025189;-67
2023/10/31 03:18:16;;;;;;;4.40;3.00;;;;;;;9.99;100.00;99667.36;79353;1300;3013697;-67
2023/10/31 03:20:46;;;;;;;4.60;3.50;;;;;;;10.42;99.68;99666.39;78746;1295;3013259;-66
2023/10/31 03:23:13;;;;;;;5.70;3.60;;;;;;;10.72;97.59;99668.74;79362;1300;3012910;-66
2023/10/31 03:25:40;;;;;;;5.70;4.00;;;;;;;10.77;96.49;99674.23;79409;1296;3012310;-65
2023/10/31 03:28:17;;;;;;;6.20;4.80;;;;;;;10.57;96.87;99670.98;78274;1301;3027114;-67
2023/10/31 03:30:47;;;;;;;5.30;4.10;;;;;;;10.32;98.09;99673.79;78184;1305;3052868;-68
2023/10/31 03:33:14;;;;;;;3.40;2.40;;;;;;;10.07;99.73;99671.84;79365;1301;3013315;-67
2023/10/31 03:35:40;;;;;;;4.00;3.30;;;;;;;10.42;99.27;99674.06;79193;1295;3011700;-67
2023/10/31 03:38:08;;;;;;;4.50;2.80;;;;;;;10.65;97.30;99677.54;78368;1295;3068037;-68
2023/10/31 03:40:35;;;;;;;5.30;3.40;;;;;;;10.44;97.53;99674.15;79278;1295;3019036;-68
2023/10/31 03:43:02;;;;;;;4.80;3.40;;;;;;;10.29;98.24;99673.23;79513;1298;3013172;-67
2023/10/31 03:45:30;;;;;;;4.30;3.40;;;;;;;10.04;99.56;99679.51;78403;1295;3053020;-64
2023/10/31 03:47:57;;;;;;;3.70;2.40;;;;;;;9.88;100.00;99674.41;79543;1301;3011584;-70
2023/10/31 03:50:23;;;;;;;2.80;2.30;;;;;;;10.24;99.92;99675.05;79431;1301;3013362;-64
2023/10/31 03:52:51;;;;;;;4.70;3.00;;;;;;;10.58;98.10;99674.77;78174;1301;3026076;-65
2023/10/31 03:55:18;;;;;;;5.10;3.30;;;;;;;10.47;97.96;99675.59;79348;1296;3014040;-65
2023/10/31 03:57:45;;;;;;;4.50;3.00;;;;;;;10.13;99.45;99676.05;79443;1295;3011521;-65
2023/10/31 04:00:13;;;;;;;3.50;2.90;;;;;;;9.92;100.00;99673.49;78126;1296;3054075;-67
2023/10/31 04:02:41;;;;;;;2.80;2.30;;;;;;;9.77;100.00;99676.25;79541;1295;3013427;-67
2023/10/31 04:05:08;;;;;;;4.10;3.20;;;;;;;10.14;100.00;99671.97;79295;1298;3013045;-67
2023/10/31 04:07:37;;;;;;;4.90;4.00;;;;;;;10.43;99.95;99669.69;78302;1297;3068416;-68
2023/10/31 04:10:05;;;;;;;5.00;3.70;;;;;;;10.25;100.00;99672.38;79267;1301;3013345;-69
2023/10/31 04:12:32;;;;;;;6.00;3.40;;;;;;;10.07;100.00;99672.86;79483;1296;3012821;-71
2023/10/31 04:14:59;;;;;;;3.80;2.80;;;;;;;9.88;100.00;99681.27;78141;1301;3053403;-67
2023/10/31 04:17:26;;;;;;;3.70;2.60;;;;;;;9.77;100.00;99690.92;79390;1298;3013071;-69
2023/10/31 04:19:52;;;;;;;3.50;3.10;;;;;;;10.26;100.00;99677.62;79564;1300;3012713;-71
2023/10/31 04:22:20;;;;;;;2.60;2.20;;;;;;;10.32;100.00;99674.27;78061;1298;3028928;-72
2023/10/31 04:24:46;;;;;;;5.10;3.70;;;;;;;10.33;100.00;99676.88;79592;1295;3020577;-66
2023/10/31 04:27:13;;;;;;;5.80;2.80;;;;;;;10.18;100.00;99677.89;79315;1295;3012078;-69
2023/10/31 04:29:41;;;;;;;3.70;2.60;;;;;;;10.07;100.00;99676.52;78086;1299;3028535;-68
2023/10/31 04:32:07;;;;;;;3.40;2.50;;;;;;;10.40;100.00;99673.98;79290;1301;3013339;-66
2023/10/31 04:34:34;;;;;;;2.90;2.50;;;;;;;10.61;100.00;99670.56;79275;1309;3011590;-67
2023/10/31 04:37:02;;;;;;;3.80;2.80;;;;;;;10.58;99.96;99674.75;78280;1298;3028810;-71
2023/10/31 04:39:28;;;;;;;5.00;3.50;;;;;;;10.37;100.00;99677.66;79328;1295;3013436;-65
2023/10/31 04:41:55;;;;;;;2.40;1.80;;;;;;;10.26;100.00;99676.59;79387;1295;3013493;-69
2023/10/31 04:44:22;;;;;;;2.70;2.00;;;;;;;10.53;100.00;99678.02;78436;1295;3028607;-71
2023/10/31 04:46:49;;;;;;;2.60;2.30;;;;;;;10.80;99.79;99673.53;79289;1295;3013874;-65
2023/10/31 04:49:16;;;;;;;3.20;2.50;;;;;;;10.86;99.07;99675.62;79286;1296;3011673;-67
2023/10/31 04:51:44;;;;;;;3.50;2.70;;;;;;;10.63;99.68;99680.25;78183;1295;3068734;-67
2023/10/31 04:54:11;;;;;;;6.50;3.10;;;;;;;10.38;100.00;99682.91;79498;1298;3013762;-71
2023/10/31 04:56:37;;;;;;;3.40;2.60;;;;;;;10.26;100.00;99690.02;79454;1295;3013188;-68
2023/10/31 04:59:05;;;;;;;3.30;2.50;;;;;;;10.44;100.00;99692.36;78176;1295;3029036;-69
2023/10/31 05:01:32;;;;;;;3.90;3.00;;;;;;;10.63;100.00;99697.96;79379;1301;3018877;-69
2023/10/31 05:03:58;;;;;;;4.50;3.50;;;;;;;10.57;99.89;99704.22;79462;1301;3011534;-66
2023/10/31 05:06:26;;;;;;;6.30;3.30;;;;;;;10.45;100.00;99707.37;78132;1300;3026047;-64
2023/10/31 05:08:53;;;;;;;2.40;2.10;;;;;;;10.31;100.00;99710.77;79346;1295;3013558;-68
2023/10/31 05:11:19;;;;;;;3.20;2.70;;;;;;;10.64;100.00;99711.22;79351;1295;3011635;-67
2023/10/31 05:13:47;;;;;;;3.30;2.80;;;;;;;10.93;99.41;99714.98;78077;1296;3053981;-65
2023/10/31 05:16:14;;;;;;;4.80;3.80;;;;;;;10.96;98.87;99716.42;79446;1301;3019160;-65
2023/10/31 05:18:40;;;;;;;4.70;3.70;;;;;;;10.64;99.63;99716.83;79354;1300;3011691;-72
2023/10/31 05:21:08;;;;;;;4.00;2.60;;;;;;;10.45;100.00;99715.23;78083;1301;3027359;-70
2023/10/31 05:23:35;;;;;;;3.10;2.80;;;;;;;10.80;100.00;99716.64;79420;1295;3012694;-66
2023/10/31 05:26:01;;;;;;;4.40;3.40;;;;;;;11.03;98.91;99723.33;79688;1301;3011870;-68
2023/10/31 05:28:29;;;;;;;3.80;3.30;;;;;;;11.07;98.79;99719.10;78313;1298;3028293;-68
2023/10/31 05:30:56;;;;;;;8.50;4.00;;;;;;;10.89;99.23;99729.27;79401;1301;3012663;-67
2023/10/31 05:33:23;;;;;;;4.60;2.60;;;;;;;10.50;100.00;99724.97;79480;1301;3011988;-70
2023/10/31 05:35:51;;;;;;;4.40;2.90;;;;;;;10.86;100.00;99723.80;78448;1295;3028688;-68
2023/10/31 05:38:17;;;;;;;7.10;3.60;;;;;;;11.02;100.00;99726.02;79432;1300;3018395;-67
2023/10/31 05:40:43;;;;;;;6.10;3.30;;;;;;;10.87;100.00;99727.40;79486;1300;3012099;-66
2023/10/31 05:43:11;;;;;;;7.10;4.20;;;;;;;10.90;100.00;99728.30;78321;1296;3026691;-69
2023/10/31 05:45:38;;;;;;;3.60;2.80;;;;;;;10.72;100.00;99729.86;79521;1300;3013554;-68
2023/10/31 05:48:05;;;;;;;5.20;3.00;;;;;;;11.04;100.00;99727.87;79609;1295;3011426;-66
2023/10/31 05:50:33;;;;;;;7.40;3.50;;;;;;;11.33;100.00;99731.38;78277;1295;3028308;-69
2023/10/31 05:52:59;;;;;;;4.40;3.00;;;;;;;11.36;99.80;99731.92;79523;1295;3020725;-67
2023/10/31 05:55:26;;;;;;;7.60;3.90;;;;;;;11.13;100.00;99732.94;79388;1301;3011371;-70
2023/10/31 05:57:54;;;;;;;3.50;2.50;;;;;;;10.89;100.00;99734.14;78134;1301;3028044;-70
2023/10/31 06:00:20;;;;;;;5.10;3.10;;;;;;;11.30;100.00;99732.30;79664;1300;3018742;-63
2023/10/31 06:02:47;;;;;;;5.50;3.90;;;;;;;11.62;99.74;99727.94;79651;1301;3011493;-71
2023/10/31 06:05:15;;;;;;;6.10;3.90;;;;;;;11.50;99.86;99729.55;78226;1295;3026496;-72
2023/10/31 06:07:41;;;;;;;5.30;4.10;;;;;;;11.54;99.86;99731.20;79497;1295;3012864;-68
2023/10/31 06:10:08;;;;;;;4.60;2.80;;;;;;;11.29;100.00;99734.60;79359;1295;3011638;-65
2023/10/31 06:12:36;;;;;;;4.60;2.90;;;;;;;11.60;100.00;99739.83;78348;1295;3025494;-72
2023/10/31 06:15:03;;;;;;;5.70;3.40;;;;;;;11.74;99.82;99735.43;79512;1301;3012821;-67
2023/10/31 06:17:33;;;;;;;6.20;4.10;;;;;;;11.57;99.95;99740.70;79634;1300;3011425;-68
2023/10/31 06:20:01;;;;;;;6.60;3.80;;;;;;;11.32;100.00;99742.68;78506;1298;3068411;-70
2023/10/31 06:22:28;;;;;;;4.10;2.60;;;;;;;11.38;100.00;99744.25;79335;1300;3012689;-71
2023/10/31 06:24:55;;;;;;;5.50;3.30;;;;;;;11.50;100.00;99752.67;79596;1295;3012791;-67
2023/10/31 06:27:22;;;;;;;6.10;3.10;;;;;;;11.92;99.31;99749.65;78226;1296;3052803;-69
2023/10/31 06:29:49;;;;;;;8.90;4.20;;;;;;;11.96;98.19;99751.45;79808;1295;3019115;-68
2023/10/31 06:32:16;;;;;;;8.60;4.60;;;;;;;11.74;98.71;99748.42;79466;1300;3011621;-66
2023/10/31 06:34:43;;;;;;;4.80;2.90;;;;;;;11.47;99.89;99744.64;78145;1301;3028225;-69
2023/10/31 06:37:10;;;;;;;6.60;3.00;;;;;;;11.85;99.45;99744.27;79366;1295;3014877;-68
2023/10/31 06:39:36;;;;;;;9.10;3.30;;;;;;;11.89;97.70;99749.46;79429;1295;3011849;-69
2023/10/31 06:42:04;;;;;;;6.20;3.90;;;;;;;11.87;97.34;99745.21;78347;1301;3026487;-67
2023/10/31 06:44:31;;;;;;;7.10;3.60;;;;;;;11.80;97.90;99752.98;79607;1300;3013344;-69
2023/10/31 06:46:57;;;;;;;6.40;3.80;;;;;;;11.78;97.68;99750.13;79540;1301;3011472;-67
2023/10/31 06:49:25;;;;;;;7.00;3.10;;;;;;;11.76;98.70;99745.85;78242;1295;3025938;-64
2023/10/31 06:51:52;;;;;;;7.30;4.00;;;;;;;12.27;96.77;99745.74;79365;1300;3012849;-68
2023/10/31 06:54:19;;;;;;;6.80;3.40;;;;;;;12.51;93.93;99744.21;79527;1295;3011670;-68
2023/10/31 06:56:47;;;;;;;7.70;4.10;;;;;;;12.24;93.96;99742.73;78526;1300;3053310;-69
2023/10/31 06:59:13;;;;;;;6.20;3.90;;;;;;;12.20;94.17;99746.52;79631;1295;3018756;-71
2023/10/31 07:01:40;;;;;;;8.60;4.10;;;;;;;12.14;94.55;99745.30;79581;1295;3013319;-66
2023/10/31 07:04:11;;;;;;;7.70;2.60;;;;;;;11.91;95.70;99744.98;78110;1299;3026115;-71
2023/10/31 07:06:37;;;;;;;6.80;2.70;;;;;;;12.34;93.90;99744.06;79818;1296;3012193;-68
2023/10/31 07:09:07;;;;;;;4.40;2.60;;;;;;;12.55;92.11;99739.21;78775;1296;3011796;-67
2023/10/31 07:11:34;;;;;;;6.50;2.70;;;;;;;12.41;91.64;99741.15;79755;1295;3013478;-68
2023/10/31 07:14:02;;;;;;;10.10;3.40;;;;;;;11.96;93.34;99743.95;79490;1295;3013487;-66
2023/10/31 07:16:32;;;;;;;7.50;3.00;;;;;;;11.71;95.79;99741.95;78505;1295;3053208;-66
2023/10/31 07:18:58;;;;;;;5.70;2.40;;;;;;;11.57;97.01;99742.79;79626;1295;3011744;-70
2023/10/31 07:21:26;;;;;;;7.20;3.60;;;;;;;11.76;96.18;99739.21;79697;1296;3011561;-66
2023/10/31 07:23:55;;;;;;;8.90;2.70;;;;;;;12.03;94.97;99742.46;78393;1296;3056485;-69
2023/10/31 07:26:22;;;;;;;4.60;3.00;;;;;;;11.97;94.76;99740.36;79667;1295;3014437;-71
2023/10/31 07:28:48;;;;;;;5.40;2.80;;;;;;;11.99;95.80;99735.33;79784;1295;3011689;-69
2023/10/31 07:31:16;;;;;;;7.60;3.00;;;;;;;12.02;95.73;99736.38;78461;1295;3052848;-70
2023/10/31 07:33:48;;;;;;;6.80;2.50;;;;;;;12.03;96.37;99734.75;79500;1300;3013190;-70
2023/10/31 07:36:15;;;;;;;4.40;2.20;;;;;;;12.70;93.64;99732.91;78376;1300;3052249;-71
2023/10/31 07:38:42;;;;;;;4.70;2.30;;;;;;;13.23;90.05;99736.00;79575;1301;3013521;-71
2023/10/31 07:41:08;;;;;;;3.50;2.40;;;;;;;13.06;90.25;99738.67;79620;1296;3013102;-71
2023/10/31 07:43:36;;;;;;;2.90;2.20;;;;;;;12.74;91.44;99730.74;78562;1300;3025989;-73
2023/10/31 07:46:03;;;;;;;4.30;2.30;;;;;;;12.63;92.54;99732.74;79521;1301;3013910;-70
2023/10/31 07:48:29;;;;;;;3.80;1.90;;;;;;;12.44;93.29;99731.13;79780;1295;3011755;-70
2023/10/31 07:50:57;;;;;;;4.60;2.40;;;;;;;12.76;93.18;99732.20;78258;1295;3026712;-71
2023/10/31 07:53:24;;;;;;;4.00;2.30;;;;;;;13.11;90.87;99735.71;79601;1295;3018741;-66
2023/10/31 07:55:50;;;;;;;5.80;2.70;;;;;;;12.91;91.29;99737.95;79687;1300;3011688;-68
2023/10/31 07:58:18;;;;;;;3.90;2.40;;;;;;;12.89;91.42;99730.84;78279;1299;3027677;-69
2023/10/31 08:00:45;;;;;;;6.10;3.00;;;;;;;12.81;91.98;99730.66;79524;1295;3013795;-69
2023/10/31 08:03:11;;;;;;;6.90;1.80;;;;;;;12.90;92.50;99732.23;79548;1296;3011935;-68
2023/10/31 08:05:40;;;;;;;6.40;2.30;;;;;;;13.52;90.83;99729.08;78581;1301;3025958;-69
2023/10/31 08:08:06;;;;;;;8.50;2.90;;;;;;;13.87;87.65;99727.39;79559;1295;3015042;-71
2023/10/31 08:10:34;;;;;;;4.50;2.90;;;;;;;13.68;87.86;99729.61;79725;1295;3012637;-70
2023/10/31 08:13:02;;;;;;;8.70;3.20;;;;;;;13.54;88.59;99732.15;78305;1300;3050033;-67
2023/10/31 08:15:28;;;;;;;7.10;3.00;;;;;;;13.31;89.72;99731.58;79629;1295;3019212;-69
2023/10/31 08:17:55;;;;;;;6.80;3.10;;;;;;;13.01;90.44;99731.96;79664;1297;3011473;-70
2023/10/31 08:20:22;;;;;;;7.30;3.10;;;;;;;12.95;91.13;99730.65;78345;1296;3025003;-68
2023/10/31 08:22:49;;;;;;;8.90;3.20;;;;;;;13.55;89.23;99724.15;79537;1295;3013693;-66
2023/10/31 08:25:15;;;;;;;7.10;3.40;;;;;;;13.96;86.70;99725.90;79596;1295;3011278;-67
2023/10/31 08:27:43;;;;;;;5.90;3.70;;;;;;;14.16;85.42;99720.24;78317;1301;3024880;-66
2023/10/31 08:30:11;;;;;;;7.50;4.30;;;;;;;13.93;86.47;99725.23;79579;1301;3013443;-66
2023/10/31 08:32:37;;;;;;;11.90;4.60;;;;;;;13.94;86.34;99723.41;79515;1295;3011585;-67
2023/10/31 08:35:05;;;;;;;10.10;5.00;;;;;;;13.85;86.46;99725.77;78304;1300;3051747;-64
2023/10/31 08:37:32;;;;;;;8.30;3.20;;;;;;;13.82;87.18;99724.23;79649;1295;3013489;-68
2023/10/31 08:39:58;;;;;;;9.90;3.60;;;;;;;14.30;85.22;99721.88;79589;1299;3012949;-69
2023/10/31 08:42:26;;;;;;;6.10;3.60;;;;;;;14.54;83.43;99724.42;78477;1300;3026692;-69
2023/10/31 08:44:52;;;;;;;6.70;3.70;;;;;;;14.80;82.64;99714.76;79544;1301;3013383;-69
2023/10/31 08:47:19;;;;;;;12.70;4.30;;;;;;;14.92;81.62;99717.44;79451;1295;3013128;-65
2023/10/31 08:49:46;;;;;;;13.70;4.80;;;;;;;14.98;81.66;99711.69;78394;1295;3026146;-70
2023/10/31 08:52:13;;;;;;;8.70;4.00;;;;;;;15.08;80.94;99715.34;79536;1300;3013369;-68
2023/10/31 08:54:40;;;;;;;9.20;4.30;;;;;;;14.97;81.09;99712.08;79481;1295;3011732;-66
2023/10/31 08:57:08;;;;;;;8.70;3.10;;;;;;;14.87;81.21;99709.15;78578;1300;3028442;-68
2023/10/31 08:59:35;;;;;;;7.50;3.10;;;;;;;15.18;79.85;99707.34;79821;1300;3012947;-68
2023/10/31 09:02:02;;;;;;;6.30;3.60;;;;;;;15.45;79.19;99701.96;79637;1300;3011621;-68
2023/10/31 09:04:30;;;;;;;13.00;4.10;;;;;;;15.63;78.21;99703.73;78366;1295;3026538;-65
2023/10/31 09:06:56;;;;;;;9.10;3.90;;;;;;;15.68;77.29;99701.20;79607;1298;3019064;-66
2023/10/31 09:09:23;;;;;;;9.20;4.20;;;;;;;15.60;78.10;99699.95;79569;1297;3011685;-67
2023/10/31 09:11:50;;;;;;;9.80;5.20;;;;;;;15.61;78.31;99696.11;78451;1299;3026653;-67
2023/10/31 09:14:17;;;;;;;11.10;4.20;;;;;;;15.55;78.98;99693.98;79673;1300;3013318;-65
2023/10/31 09:16:43;;;;;;;11.20;4.80;;;;;;;15.39;78.38;99696.61;79801;1295;3011862;-67
2023/10/31 09:19:11;;;;;;;8.80;4.40;;;;;;;15.21;78.82;99697.04;78417;1295;3026734;-68
2023/10/31 09:21:37;;;;;;;9.70;3.00;;;;;;;15.09;79.68;99697.77;79511;1295;3012814;-69
2023/10/31 09:24:04;;;;;;;8.60;2.90;;;;;;;15.59;77.76;99692.75;79668;1296;3013313;-70
2023/10/31 09:26:33;;;;;;;8.70;3.00;;;;;;;16.03;74.40;99687.02;78366;1300;3049208;-69
2023/10/31 09:28:59;;;;;;;9.50;3.50;;;;;;;15.89;74.18;99689.00;79546;1295;3011884;-68
2023/10/31 09:31:26;;;;;;;10.20;4.20;;;;;;;15.77;74.63;99689.23;79484;1295;3011573;-71
2023/10/31 09:33:54;;;;;;;9.20;3.90;;;;;;;15.85;74.42;99685.98;78232;1295;3050659;-72
2023/10/31 09:36:20;;;;;;;11.70;4.60;;;;;;;15.90;74.94;99683.27;79506;1300;3013302;-68
2023/10/31 09:38:46;;;;;;;14.10;5.00;;;;;;;15.90;75.12;99680.13;79572;1295;3011655;-68
2023/10/31 09:41:14;;;;;;;11.30;4.30;;;;;;;15.90;75.27;99682.77;78328;1295;3026152;-71
2023/10/31 09:43:42;;;;;;;11.00;4.60;;;;;;;15.89;75.93;99678.58;79460;1300;3018305;-68
2023/10/31 09:46:09;;;;;;;13.60;4.70;;;;;;;15.88;76.56;99682.20;79537;1300;3011551;-69
2023/10/31 09:48:37;;;;;;;7.50;2.80;;;;;;;15.99;77.21;99677.68;78253;1295;3051260;-66
2023/10/31 09:51:04;;;;;;;8.60;3.60;;;;;;;16.52;75.53;99678.81;79514;1295;3018546;-68
2023/10/31 09:53:30;;;;;;;10.80;3.00;;;;;;;17.14;73.55;99672.13;79393;1295;3013458;-66
2023/10/31 09:55:58;;;;;;;10.20;3.70;;;;;;;17.41;71.90;99671.79;78512;1296;3026472;-69
2023/10/31 09:58:25;;;;;;;7.20;3.40;;;;;;;17.29;71.59;99683.25;79484;1301;3013479;-66
2023/10/31 10:00:51;;;;;;;9.90;3.80;;;;;;;17.17;71.67;99681.77;79498;1296;3012780;-66
2023/10/31 10:03:19;;;;;;;9.10;4.10;;;;;;;17.04;72.54;99681.09;78355;1295;3024967;-68
2023/10/31 10:05:46;;;;;;;9.00;4.20;;;;;;;16.83;73.44;99680.89;79634;1296;3013181;-68
2023/10/31 10:08:14;;;;;;;19.50;4.90;;;;;;;16.82;73.88;99681.89;79627;1295;3011847;-67
2023/10/31 10:10:42;;;;;;;15.70;6.30;;;;;;;16.81;74.17;99684.44;78235;1298;3050651;-67
2023/10/31 10:13:09;;;;;;;16.00;5.00;;;;;;;16.59;75.73;99679.89;79471;1296;3013721;-64
2023/10/31 10:15:48;;;;;;;12.40;6.00;;;;;;;16.52;76.66;99675.86;79593;1295;3011911;-69
2023/10/31 10:18:30;;;;;;;16.70;3.30;;;;;;;16.66;76.77;99674.02;78353;1295;3051986;-71
2023/10/31 10:20:59;;;;;;;11.30;4.20;;;;;;;17.15;75.61;99666.04;78813;1295;3055085;-68
2023/10/31 10:23:26;;;;;;;9.60;3.90;;;;;;;17.63;74.23;99661.58;79669;1295;3013347;-67
2023/10/31 10:25:53;;;;;;;11.50;4.40;;;;;;;17.71;74.16;99660.92;79724;1299;3012913;-67
2023/10/31 10:28:22;;;;;;;14.30;4.50;;;;;;;17.79;74.45;99658.63;78357;1300;3052151;-69
2023/10/31 10:30:48;;;;;;;9.00;3.80;;;;;;;17.62;74.80;99656.86;77234;1295;3412110;-69
2023/10/31 10:33:15;;;;;;;8.50;4.00;;;;;;;17.51;75.91;99656.03;79607;1295;3013419;-69
2023/10/31 10:35:43;;;;;;;12.50;4.10;;;;;;;17.49;76.34;99655.52;78449;1301;3026019;-71
2023/10/31 10:38:14;;;;;;;15.20;4.80;;;;;;;17.38;77.06;99653.15;79828;1297;3012949;-67
2023/10/31 10:40:47;;;;;;;13.90;4.60;;;;;;;17.31;77.66;99659.59;78447;1300;3049084;-67
2023/10/31 10:43:26;;;;;;;10.20;3.00;;;;;;;17.33;77.73;99654.99;79613;1300;3013549;-68
2023/10/31 10:45:56;;;;;;;12.00;2.60;;;;;;;17.64;75.64;99658.02;78334;1295;3053275;-68
2023/10/31 10:48:23;;;;;;;7.00;3.20;;;;;;;17.80;74.88;99651.05;79627;1296;3013685;-68
2023/10/31 10:50:57;;;;;;;9.50;3.20;;;;;;;18.03;73.84;99652.59;79617;1295;3012118;-70
2023/10/31 10:53:28;;;;;;;10.00;3.20;;;;;;;17.93;74.11;99652.63;78290;1300;3050083;-68
2023/10/31 10:56:00;;;;;;;9.70;3.30;;;;;;;17.94;73.80;99656.61;79714;1300;3011323;-68
2023/10/31 10:58:44;;;;;;;10.00;3.40;;;;;;;17.94;74.06;99646.91;78372;1300;3050460;-69
2023/10/31 11:01:11;;;;;;;13.20;3.30;;;;;;;17.88;73.30;99646.47;78354;1301;3051857;-69
2023/10/31 11:03:38;;;;;;;14.90;3.60;;;;;;;17.78;73.20;99642.39;79479;1299;3019216;-69
2023/10/31 11:06:04;;;;;;;10.00;3.40;;;;;;;17.88;72.60;99648.48;79477;1295;3013838;-68
2023/10/31 11:08:33;;;;;;;8.30;3.00;;;;;;;17.85;72.36;99645.30;78377;1295;3055076;-68
2023/10/31 11:11:00;;;;;;;13.10;3.60;;;;;;;17.97;71.89;99638.84;79479;1301;3013317;-69
2023/10/31 11:13:26;;;;;;;11.50;3.40;;;;;;;18.08;71.94;99632.18;79514;1295;3011629;-69
2023/10/31 11:15:57;;;;;;;12.60;3.20;;;;;;;18.10;71.62;99630.72;78316;1298;3026228;-67